KMIB/MIB METAR and TAF weather

Enter ICAO airport designator
Station Type Date Time Source
KMIB METAR 2018/12/10 12:56 UTC NOAA

KMIB 101256Z AUTO 01003KT 10SM CLR M09/M11 A2998 RMK AO2 SLP187 T10931112 $


Station Type Date Time Source
KMIB Decoded METAR 2018/12/10 12:56 UTC NOAA

Minot Air Force Base, ND, United States (KMIB) 48-25N 101-21W
Dec 10, 2018 - 07:56 AM EST / 2018.12.10 1256 UTC
Wind: from the N (010 degrees) at 3 MPH (3 KT):0
Visibility: 10 mile(s):0
Sky conditions: clear
Temperature: 15.3 F (-9.3 C)
Dew Point: 11.8 F (-11.2 C)
Relative Humidity: 86%
Pressure (altimeter): 29.98 in. Hg (1015 hPa)
ob: KMIB 101256Z AUTO 01003KT 10SM CLR M09/M11 A2998 RMK AO2 SLP187 T10931112
cycle: 13

Station Type Date Time Source
KMIB TAF 2018/12/10 09:15 UTC NOAA

TAF KMIB 100900Z 1009/1115 24006KT 9999 FEW250 QNH2984INS
BECMG 1111/1112 27006KT 9999 SCT090 QNH2982INS TXM02/1020Z TNM11/1015Z


Example: see airport list